createdAt,value
2022-08-10T00:04:21.193Z,56.74
2022-08-10T00:09:13.326Z,57.26
2022-08-10T00:14:04.960Z,57.62
2022-08-10T00:18:56.620Z,57.71
2022-08-10T00:23:48.267Z,57.92
2022-08-10T00:28:39.948Z,58.02
2022-08-10T00:33:31.576Z,57.46
2022-08-10T00:38:23.343Z,56.77
2022-08-10T00:43:15.071Z,57.15
2022-08-10T00:48:16.133Z,56.70
2022-08-10T00:53:08.138Z,56.16
2022-08-10T00:58:00.468Z,55.79
2022-08-10T01:02:53.183Z,56.00
2022-08-10T01:07:51.172Z,56.13
2022-08-10T01:13:07.127Z,56.27
2022-08-10T01:18:05.555Z,56.43
2022-08-10T01:23:34.712Z,56.43
2022-08-10T01:29:01.282Z,56.89
2022-08-10T01:34:02.337Z,57.36
2022-08-10T01:38:56.897Z,57.32
2022-08-10T01:44:00.033Z,57.79
2022-08-10T01:48:59.026Z,57.95
2022-08-10T01:54:12.947Z,58.57
2022-08-10T01:59:10.859Z,58.86
2022-08-10T02:04:08.242Z,59.34
2022-08-10T02:09:06.478Z,59.22
2022-08-10T02:14:00.889Z,59.87
2022-08-10T02:18:55.134Z,60.11
2022-08-10T02:23:59.716Z,60.20
2022-08-10T02:28:54.685Z,60.66
2022-08-10T02:33:56.446Z,60.97
2022-08-10T02:39:00.971Z,61.58
2022-08-10T02:45:19.467Z,61.77
2022-08-10T02:49:32.377Z,62.32
2022-08-10T02:54:28.955Z,62.68
2022-08-10T02:59:39.877Z,62.93
2022-08-10T03:04:57.269Z,63.91
2022-08-10T03:09:52.122Z,64.17
2022-08-10T03:14:45.617Z,64.32
2022-08-10T03:20:34.707Z,64.53
2022-08-10T03:24:51.566Z,65.20
2022-08-10T03:30:29.995Z,65.53
2022-08-10T03:34:58.514Z,65.52
2022-08-10T03:39:51.467Z,65.39
2022-08-10T03:44:47.398Z,66.06
2022-08-10T03:49:44.071Z,65.56
2022-08-10T03:54:36.102Z,65.79
2022-08-10T03:59:28.323Z,65.78
2022-08-10T04:04:24.695Z,65.88
2022-08-10T04:09:17.337Z,65.61
2022-08-10T04:14:09.225Z,66.10
2022-08-10T04:19:21.811Z,66.19
2022-08-10T04:24:29.048Z,66.20
2022-08-10T04:29:21.747Z,66.10
2022-08-10T04:34:15.801Z,66.21
2022-08-10T04:39:08.023Z,66.38
2022-08-10T04:43:59.726Z,66.62
2022-08-10T04:49:01.265Z,66.74
2022-08-10T04:54:04.080Z,66.71
2022-08-10T04:58:57.896Z,66.64
2022-08-10T05:04:37.152Z,66.75
2022-08-10T05:09:01.198Z,66.97
2022-08-10T05:13:52.814Z,66.60
2022-08-10T05:18:44.422Z,66.71
2022-08-10T05:23:36.062Z,66.85
2022-08-10T05:28:27.858Z,66.82
2022-08-10T05:33:24.235Z,66.65
2022-08-10T05:38:17.810Z,65.66
2022-08-10T05:43:09.587Z,64.29
2022-08-10T05:48:58.146Z,62.81
2022-08-10T05:53:59.643Z,61.27
2022-08-10T05:58:27.968Z,58.72
2022-08-10T06:03:24.349Z,57.14
2022-08-10T06:08:19.246Z,56.09
2022-08-10T06:13:34.803Z,54.03
2022-08-10T06:18:43.446Z,52.64
2022-08-10T06:23:37.087Z,51.42
2022-08-10T06:28:31.260Z,50.13
2022-08-10T06:33:24.518Z,48.86
2022-08-10T06:38:17.225Z,48.09
2022-08-10T06:43:13.489Z,47.76
2022-08-10T06:48:28.753Z,46.25
2022-08-10T06:53:22.853Z,45.24
2022-08-10T06:58:15.818Z,44.18
2022-08-10T07:03:11.521Z,43.43
2022-08-10T07:08:03.978Z,42.21
2022-08-10T07:12:57.947Z,41.30
2022-08-10T07:17:52.814Z,40.11
2022-08-10T07:23:01.306Z,39.18
2022-08-10T07:28:03.385Z,38.91
2022-08-10T07:32:56.136Z,36.78
2022-08-10T07:37:51.445Z,35.85
2022-08-10T07:42:46.179Z,35.92
2022-08-10T07:47:53.533Z,35.04
2022-08-10T07:52:48.910Z,35.00
2022-08-10T07:57:44.544Z,33.93
2022-08-10T08:02:46.236Z,33.54
2022-08-10T08:07:39.019Z,33.46
2022-08-10T08:12:36.910Z,33.75
2022-08-10T08:17:36.432Z,33.43
2022-08-10T08:24:09.318Z,31.70
2022-08-10T08:27:42.854Z,29.94
2022-08-10T08:32:42.349Z,29.12
2022-08-10T08:38:32.337Z,29.33
2022-08-10T08:43:27.368Z,29.10
2022-08-10T08:48:31.276Z,27.64
2022-08-10T08:54:01.756Z,26.65
2022-08-10T08:59:11.405Z,27.51
2022-08-10T09:04:24.189Z,27.81
2022-08-10T09:09:35.374Z,27.84
2022-08-10T09:14:57.107Z,27.28
2022-08-10T09:19:56.029Z,27.03
2022-08-10T09:25:14.143Z,26.75
2022-08-10T09:30:08.674Z,26.18
2022-08-10T09:36:22.293Z,25.39
2022-08-10T09:41:00.940Z,26.40
2022-08-10T09:46:20.521Z,26.70
2022-08-10T09:56:41.643Z,26.47
2022-08-10T10:02:02.959Z,25.04
2022-08-10T10:06:58.538Z,25.53
2022-08-10T10:11:50.104Z,25.15
2022-08-10T10:17:03.987Z,25.13
2022-08-10T10:22:10.678Z,24.24
2022-08-10T10:27:24.661Z,24.76
2022-08-10T10:32:24.476Z,25.05
2022-08-10T10:37:20.044Z,23.25
2022-08-10T10:42:46.887Z,23.56
2022-08-10T10:47:50.636Z,22.94
2022-08-10T10:53:18.026Z,22.61
2022-08-10T10:58:21.731Z,22.81
2022-08-10T11:03:23.673Z,22.04
2022-08-10T11:08:29.325Z,22.39
2022-08-10T11:14:25.481Z,21.75
2022-08-10T11:18:58.038Z,21.12
2022-08-10T11:24:47.037Z,22.10
2022-08-10T11:29:32.317Z,22.60
2022-08-10T11:35:10.433Z,21.28
2022-08-10T11:40:13.205Z,20.85
2022-08-10T11:45:29.649Z,20.88
2022-08-10T11:50:26.677Z,21.38
2022-08-10T11:55:24.714Z,22.36
2022-08-10T12:00:17.464Z,21.69
2022-08-10T12:05:18.152Z,22.30
2022-08-10T12:10:13.704Z,22.81
2022-08-10T12:15:27.947Z,22.12
2022-08-10T12:20:39.435Z,22.12
2022-08-10T12:25:59.307Z,22.26
2022-08-10T12:30:56.553Z,23.16
2022-08-10T12:36:17.410Z,23.00
2022-08-10T12:41:43.743Z,23.99
2022-08-10T12:46:38.743Z,23.26
2022-08-10T12:51:33.699Z,23.41
2022-08-10T12:56:28.024Z,23.75
2022-08-10T13:01:23.372Z,23.79
2022-08-10T13:06:16.861Z,23.96
2022-08-10T13:12:34.332Z,23.52
2022-08-10T13:16:24.578Z,24.27
2022-08-10T13:21:29.864Z,25.26
2022-08-10T13:26:26.330Z,25.03
2022-08-10T13:32:03.378Z,25.41
2022-08-10T13:36:41.761Z,26.20
2022-08-10T13:41:45.138Z,26.17
2022-08-10T13:46:40.478Z,26.24
2022-08-10T13:51:53.973Z,26.47
2022-08-10T13:56:51.155Z,26.79
2022-08-10T14:01:48.973Z,27.28
2022-08-10T14:06:48.661Z,26.84
2022-08-10T14:11:42.046Z,27.07
2022-08-10T14:16:35.076Z,26.49
2022-08-10T14:21:27.826Z,27.89
2022-08-10T14:26:25.150Z,28.06
2022-08-10T14:31:22.194Z,27.10
2022-08-10T14:36:24.236Z,27.16
2022-08-10T14:42:02.581Z,27.17
2022-08-10T14:46:36.821Z,27.37
2022-08-10T14:51:43.907Z,27.62
2022-08-10T14:56:37.318Z,27.89
2022-08-10T15:02:01.468Z,27.98
2022-08-10T15:06:54.118Z,27.32
2022-08-10T15:12:13.354Z,27.52
2022-08-10T15:17:11.349Z,27.93
2022-08-10T15:22:18.127Z,27.88
2022-08-10T15:27:19.468Z,28.77
2022-08-10T15:32:30.402Z,28.46
2022-08-10T15:37:47.165Z,28.63
2022-08-10T15:42:39.155Z,28.49
2022-08-10T15:47:45.623Z,28.39
2022-08-10T15:53:00.483Z,28.45
2022-08-10T15:58:12.950Z,28.26
2022-08-10T16:03:15.843Z,27.91
2022-08-10T16:08:11.171Z,28.13
2022-08-10T16:13:50.504Z,28.43
2022-08-10T16:18:27.705Z,28.40
2022-08-10T16:23:23.992Z,28.62
2022-08-10T16:28:19.980Z,28.48
2022-08-10T16:33:18.562Z,29.08
2022-08-10T16:38:13.391Z,28.87
2022-08-10T16:43:09.325Z,28.73
2022-08-10T16:48:01.894Z,28.96
2022-08-10T16:52:54.263Z,28.57
2022-08-10T16:57:48.507Z,28.74
2022-08-10T17:02:45.978Z,28.53
2022-08-10T17:07:40.875Z,28.99
2022-08-10T17:12:34.979Z,28.91
2022-08-10T17:17:31.362Z,28.45
2022-08-10T17:22:28.170Z,28.97
2022-08-10T17:28:05.633Z,29.20
2022-08-10T17:33:24.845Z,28.25
2022-08-10T17:38:21.341Z,28.20
2022-08-10T17:44:00.805Z,28.42
2022-08-10T17:48:34.921Z,27.81
2022-08-10T17:53:42.046Z,28.17
2022-08-10T17:58:35.780Z,28.13
2022-08-10T18:03:32.277Z,28.52
2022-08-10T18:08:25.314Z,27.90
2022-08-10T18:13:21.622Z,28.27
2022-08-10T18:18:20.884Z,28.80
2022-08-10T18:23:13.554Z,28.56
2022-08-10T18:28:10.664Z,28.57
2022-08-10T18:33:04.607Z,28.52
2022-08-10T18:38:01.462Z,28.75
2022-08-10T18:42:56.466Z,29.44
2022-08-10T18:47:58.949Z,30.19
2022-08-10T18:52:58.038Z,31.64
2022-08-10T18:58:20.181Z,32.21
2022-08-10T19:03:25.692Z,33.00
2022-08-10T19:08:49.539Z,33.65
2022-08-10T19:13:51.103Z,34.14
2022-08-10T19:19:00.506Z,34.45
2022-08-10T19:23:58.091Z,36.99
2022-08-10T19:30:04.957Z,39.17
2022-08-10T19:34:53.352Z,39.91
2022-08-10T19:40:12.169Z,41.42
2022-08-10T19:46:01.997Z,42.54
2022-08-10T19:51:01.983Z,42.83
2022-08-10T19:56:30.559Z,43.32
2022-08-10T20:01:20.271Z,44.10
2022-08-10T20:06:24.121Z,44.22
2022-08-10T20:11:46.045Z,44.70
2022-08-10T20:16:42.838Z,45.33
2022-08-10T20:21:47.284Z,45.21
2022-08-10T20:26:55.590Z,45.96
2022-08-10T20:31:53.290Z,46.16
2022-08-10T20:36:56.897Z,46.50
2022-08-10T20:42:10.553Z,46.65
2022-08-10T20:47:18.493Z,47.09
2022-08-10T20:52:10.977Z,47.58
2022-08-10T20:57:05.460Z,47.48
2022-08-10T21:02:34.899Z,48.04
2022-08-10T21:08:01.139Z,48.38
2022-08-10T21:13:16.313Z,48.40
2022-08-10T21:18:08.113Z,48.98
2022-08-10T21:23:05.921Z,49.01
2022-08-10T21:28:29.432Z,49.51
2022-08-10T21:33:45.432Z,49.72
2022-08-10T21:38:57.956Z,49.77
2022-08-10T21:45:01.079Z,50.04
2022-08-10T21:50:27.461Z,50.54
2022-08-10T21:55:58.252Z,50.90
2022-08-10T22:01:15.207Z,51.27
2022-08-10T22:06:27.854Z,51.25
2022-08-10T22:11:42.997Z,51.20
2022-08-10T22:17:59.470Z,51.31
2022-08-10T22:22:56.095Z,51.82
2022-08-10T22:28:12.389Z,51.88
2022-08-10T22:33:27.722Z,52.62
2022-08-10T22:39:08.730Z,53.02
2022-08-10T22:44:21.206Z,53.71
2022-08-10T22:49:13.506Z,54.89
2022-08-10T22:54:35.954Z,54.67
2022-08-10T22:59:32.630Z,55.20
2022-08-10T23:04:55.761Z,55.54
2022-08-10T23:10:10.309Z,55.81
2022-08-10T23:15:22.247Z,56.47
2022-08-10T23:20:18.169Z,56.65
2022-08-10T23:25:13.826Z,56.57
2022-08-10T23:30:17.708Z,57.29
2022-08-10T23:36:08.761Z,57.68
2022-08-10T23:40:32.866Z,57.83
2022-08-10T23:45:27.893Z,58.08
2022-08-10T23:50:20.554Z,57.90
2022-08-10T23:55:19.684Z,57.28
